Time;durP1;ratioP1;P1;durP2;ratioP2;P2;SDS_P1;SDS_P2;PMS_P1;PMS_P2;Temp;Humidity;BMP_temperature;BMP_pressure;BME280_temperature;BME280_humidity;BME280_pressure;Samples;Min_cycle;Max_cycle;Signal;HPM_P1;HPM_P2
2021/11/09 00:00:11;;;;;;;11.47;4.30;;;;;;;4.34;90.64;102614.38;5092606;28;20379;-62
2021/11/09 00:02:39;;;;;;;10.57;3.87;;;;;;;4.31;90.62;102612.75;5093630;28;20036;-62
2021/11/09 00:05:06;;;;;;;9.33;4.17;;;;;;;4.32;91.22;102610.94;5075450;28;20053;-62
2021/11/09 00:10:21;;;;;;;9.93;3.50;;;;;;;4.23;90.84;102620.16;5050493;28;20043;-62
2021/11/09 00:12:52;;;;;;;7.10;3.92;;;;;;;4.23;90.80;102614.00;5033944;28;20037;-62
2021/11/09 00:15:20;;;;;;;10.00;3.83;;;;;;;4.24;91.15;102619.22;5050460;28;20695;-62
2021/11/09 00:17:48;;;;;;;12.07;4.10;;;;;;;4.27;91.02;102608.53;5050308;28;20568;-62
2021/11/09 00:20:16;;;;;;;11.17;4.23;;;;;;;4.32;91.29;102616.22;5050398;28;20054;-62
2021/11/09 00:22:42;;;;;;;13.70;4.37;;;;;;;4.31;90.97;102620.66;5050257;28;20476;-62
2021/11/09 00:25:08;;;;;;;10.15;4.20;;;;;;;4.30;91.42;102623.38;5049827;28;20025;-62
2021/11/09 00:27:34;;;;;;;6.90;4.07;;;;;;;4.30;90.99;102620.72;5050145;28;20060;-62
2021/11/09 00:29:59;;;;;;;13.88;4.57;;;;;;;4.28;91.30;102609.38;5050178;28;20424;-62
2021/11/09 00:32:25;;;;;;;16.73;4.17;;;;;;;4.27;91.26;102608.53;5050176;28;20175;-62
2021/11/09 00:34:50;;;;;;;10.27;3.97;;;;;;;4.24;91.15;102605.16;5050072;28;20279;-62
2021/11/09 00:37:16;;;;;;;9.73;4.20;;;;;;;4.16;91.40;102605.47;5049915;28;20043;-62
2021/11/09 00:39:42;;;;;;;14.05;5.10;;;;;;;4.13;91.36;102601.19;5050006;28;20033;-62
2021/11/09 00:42:09;;;;;;;12.75;4.15;;;;;;;4.10;91.33;102611.91;5049794;28;20398;-62
2021/11/09 00:44:34;;;;;;;14.13;4.20;;;;;;;4.11;91.51;102604.81;5049969;28;20091;-62
2021/11/09 00:47:00;;;;;;;20.73;4.72;;;;;;;4.13;91.48;102606.47;5065074;28;20040;-62
2021/11/09 00:49:25;;;;;;;14.17;4.97;;;;;;;4.20;91.83;102609.69;5092500;28;20507;-62
2021/11/09 00:51:51;;;;;;;18.23;6.40;;;;;;;4.31;92.14;102602.19;5092986;28;20028;-62
2021/11/09 00:54:17;;;;;;;11.10;4.82;;;;;;;4.37;91.94;102603.69;5092785;28;20606;-62
2021/11/09 00:56:44;;;;;;;15.83;6.07;;;;;;;4.41;92.06;102604.41;5092011;28;20036;-62
2021/11/09 00:59:09;;;;;;;17.08;6.10;;;;;;;4.46;91.66;102605.06;5092701;28;20032;-62
2021/11/09 01:01:35;;;;;;;13.60;5.20;;;;;;;4.46;91.65;102602.44;5092439;28;20020;-62
2021/11/09 01:04:01;;;;;;;14.00;5.70;;;;;;;4.49;91.55;102613.72;5092495;28;20035;-63
2021/11/09 01:06:26;;;;;;;11.03;4.70;;;;;;;4.53;91.55;102608.28;5092460;28;20030;-63
2021/11/09 01:08:52;;;;;;;11.27;4.63;;;;;;;4.55;91.46;102609.09;5092575;28;20028;-62
2021/11/09 01:11:18;;;;;;;14.93;4.72;;;;;;;4.56;91.44;102611.66;5091279;28;20031;-62
2021/11/09 01:13:45;;;;;;;11.95;4.82;;;;;;;4.58;91.50;102609.81;5092609;28;20077;-62
2021/11/09 01:16:10;;;;;;;;;;;;;;;4.60;91.19;102600.03;5092628;28;20024;-61
2021/11/09 01:18:49;;;;;;;13.73;4.80;;;;;;;4.61;91.13;102604.38;5092195;28;19919;-62
2021/11/09 01:21:17;;;;;;;11.37;4.20;;;;;;;4.61;91.11;102600.88;5092032;28;20111;-62
2021/11/09 01:23:44;;;;;;;13.37;4.67;;;;;;;4.60;91.15;102605.31;5073917;28;20553;-61
2021/11/09 01:26:12;;;;;;;13.23;4.43;;;;;;;4.59;91.06;102603.59;5117959;22;20072;-61
2021/11/09 01:28:38;;;;;;;8.97;4.40;;;;;;;4.57;91.06;102597.53;5091676;28;20103;-62
2021/11/09 01:31:06;;;;;;;11.53;4.57;;;;;;;4.58;90.92;102595.75;5092000;28;20016;-61
2021/11/09 01:33:32;;;;;;;14.73;4.67;;;;;;;4.58;90.79;102603.66;5091923;28;20070;-62
2021/11/09 01:35:58;;;;;;;11.82;4.35;;;;;;;4.61;90.96;102603.50;5091797;28;20028;-61
2021/11/09 01:38:23;;;;;;;11.52;4.80;;;;;;;4.62;90.91;102598.19;5091864;28;20352;-62
2021/11/09 01:40:49;;;;;;;11.47;4.70;;;;;;;4.61;90.74;102599.09;5091879;28;20483;-61
2021/11/09 01:43:15;;;;;;;13.68;6.10;;;;;;;4.58;90.54;102596.63;5091481;28;20046;-62
2021/11/09 01:45:41;;;;;;;;;;;;;;;4.56;90.83;102597.59;5092099;28;20035;-62
2021/11/09 01:48:07;;;;;;;15.07;4.87;;;;;;;4.53;90.61;102603.88;5091452;28;19912;-62
2021/11/09 01:50:38;;;;;;;16.30;5.32;;;;;;;4.51;90.87;102600.44;5091670;28;20032;-63
2021/11/09 01:53:05;;;;;;;12.80;5.10;;;;;;;4.50;90.80;102596.09;5091583;28;20031;-62
2021/11/09 01:55:32;;;;;;;15.10;5.73;;;;;;;4.49;90.92;102592.59;5091344;28;20043;-62
2021/11/09 01:58:00;;;;;;;12.33;4.80;;;;;;;4.49;90.96;102597.88;5091283;28;20024;-62
2021/11/09 02:00:44;;;;;;;14.13;5.67;;;;;;;4.48;90.70;102592.66;5091438;28;20089;-62
2021/11/09 02:03:09;;;;;;;11.73;4.93;;;;;;;4.44;90.70;102583.19;5091427;28;20039;-62
2021/11/09 02:05:35;;;;;;;12.23;5.45;;;;;;;4.43;90.88;102584.09;5091273;28;20028;-63
2021/11/09 02:08:02;;;;;;;15.13;5.68;;;;;;;4.43;90.92;102576.19;5091188;28;20063;-62
2021/11/09 02:10:32;;;;;;;15.13;5.93;;;;;;;4.42;90.91;102580.59;5091278;28;20035;-62
2021/11/09 02:12:58;;;;;;;10.83;5.23;;;;;;;4.43;90.86;102570.91;5091061;28;20052;-63
2021/11/09 02:15:25;;;;;;;19.92;6.00;;;;;;;4.41;90.74;102563.06;5091128;28;20589;-63
2021/11/09 02:17:50;;;;;;;;;;;;;;;4.39;91.08;102567.53;5091847;28;20095;-63
2021/11/09 02:20:19;;;;;;;17.90;6.23;;;;;;;4.38;90.84;102565.81;5072677;28;20015;-62
2021/11/09 02:22:45;;;;;;;12.63;5.53;;;;;;;4.39;91.23;102575.44;5090760;28;20391;-62
2021/11/09 02:25:14;;;;;;;12.23;5.57;;;;;;;4.37;90.96;102576.44;5090770;28;20048;-62
2021/11/09 02:27:40;;;;;;;14.33;5.50;;;;;;;4.35;90.94;102584.44;5090905;28;20031;-62
2021/11/09 02:30:07;;;;;;;;;;;;;;;4.34;91.05;102579.22;5091156;28;20174;-63
2021/11/09 02:32:32;;;;;;;13.60;5.50;;;;;;;4.30;90.87;102589.91;5090961;28;19911;-62
2021/11/09 02:34:57;;;;;;;15.97;6.07;;;;;;;4.30;90.98;102586.41;5091001;28;20066;-62
2021/11/09 02:37:23;;;;;;;14.27;6.20;;;;;;;4.26;90.73;102583.06;5091010;28;20289;-62
2021/11/09 02:39:49;;;;;;;16.90;6.45;;;;;;;4.24;91.00;102587.56;5090924;28;20100;-62
2021/11/09 02:42:17;;;;;;;15.03;6.07;;;;;;;4.23;91.15;102583.19;5090703;28;20479;-62
2021/11/09 02:45:25;;;;;;;15.27;6.23;;;;;;;4.24;90.95;102578.75;5090549;28;20024;-62
2021/11/09 02:48:01;;;;;;;12.63;6.22;;;;;;;4.22;91.14;102570.91;5090912;28;20577;-62
2021/11/09 02:50:31;;;;;;;15.23;6.60;;;;;;;4.23;90.90;102575.28;5090643;28;20020;-62
2021/11/09 02:53:09;;;;;;;18.17;6.90;;;;;;;4.21;91.09;102582.38;5090525;28;20019;-62
2021/11/09 02:55:45;;;;;;;13.30;6.90;;;;;;;4.19;90.87;102578.09;5090290;28;20094;-63
2021/11/09 03:03:31;;;;;;;16.87;6.53;;;;;;;4.11;90.97;102574.03;5090602;28;19912;-62
2021/11/09 03:06:14;;;;;;;14.63;7.03;;;;;;;4.12;91.04;102574.88;5090409;28;20103;-62
2021/11/09 03:11:42;;;;;;;11.02;6.22;;;;;;;4.10;91.18;102580.22;5055840;28;20039;-62
2021/11/09 03:14:08;;;;;;;13.73;7.40;;;;;;;4.10;90.95;102582.88;5090075;28;20115;-62
2021/11/09 03:16:37;;;;;;;;;;;;;;;4.11;90.85;102575.78;5090650;28;20031;-62
2021/11/09 03:19:13;;;;;;;15.67;6.10;;;;;;;4.13;90.94;102587.16;5090674;28;19916;-62
2021/11/09 03:46:51;;;;;;;15.57;7.53;;;;;;;4.20;90.13;102614.13;5011307;28;20033;-62
2021/11/09 03:49:19;;;;;;;18.40;7.77;;;;;;;4.20;90.56;102607.06;5011322;28;20101;-62
2021/11/09 03:51:44;;;;;;;23.90;8.97;;;;;;;4.24;90.20;102597.25;5011232;28;20541;-62
2021/11/09 03:54:13;;;;;;;23.30;10.47;;;;;;;4.28;90.67;102590.91;5011349;28;20136;-62
2021/11/09 03:59:40;;;;;;;19.40;9.13;;;;;;;4.35;90.09;102588.84;5011403;28;20153;-62
2021/11/09 04:02:21;;;;;;;18.33;8.80;;;;;;;4.35;90.02;102584.44;5010902;28;20111;-62
2021/11/09 04:05:00;;;;;;;18.30;8.87;;;;;;;4.37;89.88;102584.38;5075001;28;20123;-62
2021/11/09 04:15:53;;;;;;;26.10;11.03;;;;;;;4.46;89.17;102600.63;5030749;28;20036;-63
2021/11/09 04:18:41;;;;;;;28.27;10.87;;;;;;;4.46;89.45;102597.16;5030365;28;20425;-63
2021/11/09 04:24:19;;;;;;;28.67;10.87;;;;;;;4.54;89.35;102610.84;5030512;28;20087;-62
2021/11/09 04:26:58;;;;;;;28.10;11.03;;;;;;;4.55;88.83;102606.44;5029385;28;20109;-62
2021/11/09 05:11:44;;;;;;;23.67;9.02;;;;;;;5.03;88.61;102617.47;5092193;28;20040;-62
2021/11/09 05:14:12;;;;;;;21.17;8.80;;;;;;;5.08;88.65;102612.81;5092424;28;20032;-62
2021/11/09 05:16:39;;;;;;;15.70;8.00;;;;;;;5.14;88.50;102617.84;5092286;28;20028;-62
2021/11/09 05:19:05;;;;;;;18.57;7.80;;;;;;;5.19;88.55;102618.47;5092037;28;20153;-63
2021/11/09 05:21:32;;;;;;;14.55;7.18;;;;;;;5.22;88.31;102626.25;5092188;28;20031;-63
2021/11/09 05:23:58;;;;;;;22.57;8.10;;;;;;;5.27;87.94;102621.59;5091992;28;20433;-62
2021/11/09 05:26:24;;;;;;;15.77;7.68;;;;;;;5.31;88.09;102623.16;5112242;22;20246;-63
2021/11/09 05:28:49;;;;;;;16.17;7.70;;;;;;;5.37;88.13;102616.75;5112680;28;20044;-63
2021/11/09 05:31:15;;;;;;;17.10;7.70;;;;;;;5.39;87.91;102616.66;5112464;28;20072;-62
2021/11/09 05:33:41;;;;;;;15.15;7.50;;;;;;;5.42;87.63;102624.44;5094035;28;20016;-62
2021/11/09 05:36:09;;;;;;;18.73;7.93;;;;;;;5.41;87.51;102620.94;5112342;28;20030;-62
2021/11/09 05:38:47;;;;;;;18.87;7.33;;;;;;;5.44;87.38;102623.44;5112364;28;20581;-62
2021/11/09 05:41:12;;;;;;;19.13;8.00;;;;;;;5.49;87.02;102629.38;5112112;28;20028;-62
2021/11/09 05:43:39;;;;;;;19.63;7.80;;;;;;;5.53;87.40;102629.19;5112270;28;20057;-62
2021/11/09 05:46:05;;;;;;;;;;;;;;;5.56;87.11;102631.72;5112740;28;20034;-63
2021/11/09 05:48:31;;;;;;;21.17;8.00;;;;;;;5.58;87.20;102627.19;5112036;28;19911;-62
2021/11/09 05:50:57;;;;;;;17.75;8.02;;;;;;;5.62;87.42;102626.97;5112109;28;20059;-62
2021/11/09 05:53:22;;;;;;;12.35;7.68;;;;;;;5.66;86.88;102630.34;5112080;28;20028;-63
2021/11/09 05:55:47;;;;;;;18.13;8.47;;;;;;;5.67;87.51;102633.81;5111754;28;20035;-62
2021/11/09 05:58:14;;;;;;;17.83;8.27;;;;;;;5.68;87.11;102641.69;5092851;28;20027;-63
2021/11/09 06:00:39;;;;;;;19.83;8.30;;;;;;;5.69;87.16;102640.75;5111786;28;20023;-62
2021/11/09 06:03:05;;;;;;;21.67;9.50;;;;;;;5.69;86.94;102642.56;5111985;28;20118;-63
2021/11/09 06:05:30;;;;;;;21.33;8.90;;;;;;;5.70;86.92;102636.31;5111609;28;20035;-62
2021/11/09 06:07:56;;;;;;;21.83;8.93;;;;;;;5.73;87.04;102639.66;5111746;28;20078;-62
2021/11/09 06:10:21;;;;;;;22.90;9.80;;;;;;;5.76;87.24;102638.66;5111803;28;20269;-62
2021/11/09 06:12:46;;;;;;;21.40;9.93;;;;;;;5.78;87.22;102647.41;5111642;28;20035;-62
2021/11/09 06:15:12;;;;;;;23.75;9.75;;;;;;;5.77;86.61;102637.75;5111616;28;20378;-62
2021/11/09 06:17:37;;;;;;;25.45;10.20;;;;;;;5.74;86.98;102636.09;5111723;28;20478;-62
2021/11/09 06:20:04;;;;;;;23.90;10.33;;;;;;;5.75;87.19;102650.16;5111550;28;20379;-62
2021/11/09 06:22:31;;;;;;;23.77;9.97;;;;;;;5.77;86.97;102638.59;5111415;28;20531;-62
2021/11/09 06:24:57;;;;;;;22.10;10.00;;;;;;;5.79;86.80;102646.44;5111248;28;20399;-62
2021/11/09 06:27:23;;;;;;;24.00;10.32;;;;;;;5.80;87.05;102658.75;5111213;28;20050;-62
2021/11/09 06:29:49;;;;;;;26.23;10.45;;;;;;;5.78;87.16;102650.88;5111261;28;20032;-62
2021/11/09 06:32:15;;;;;;;;;;;;;;;5.79;86.81;102651.72;5111954;28;20047;-63
2021/11/09 06:34:41;;;;;;;24.30;9.40;;;;;;;5.81;87.09;102649.88;5111222;28;20007;-61
2021/11/09 06:37:06;;;;;;;21.63;9.82;;;;;;;5.84;86.76;102657.66;5111005;28;20475;-62
2021/11/09 06:39:31;;;;;;;27.83;10.33;;;;;;;5.84;87.19;102660.31;5111167;28;20024;-62
2021/11/09 06:41:57;;;;;;;25.60;9.63;;;;;;;5.87;87.16;102667.22;5109690;28;20028;-62
2021/11/09 06:44:22;;;;;;;25.77;10.20;;;;;;;5.89;86.89;102668.88;5072582;28;20286;-63
2021/11/09 06:46:47;;;;;;;23.00;9.70;;;;;;;5.88;86.67;102666.31;5090527;28;20030;-62
2021/11/09 06:49:13;;;;;;;28.90;10.17;;;;;;;5.89;87.27;102670.66;5090731;28;20039;-63
2021/11/09 06:51:38;;;;;;;27.70;10.37;;;;;;;5.90;87.36;102662.66;5090435;28;20232;-62
2021/11/09 06:54:04;;;;;;;20.07;9.40;;;;;;;5.95;87.46;102667.72;5090541;28;20148;-62
2021/11/09 06:56:29;;;;;;;28.17;10.45;;;;;;;5.96;87.36;102669.41;5090338;28;20051;-63
2021/11/09 06:58:55;;;;;;;24.77;9.50;;;;;;;6.01;87.25;102674.53;5090389;28;20518;-64
2021/11/09 07:01:21;;;;;;;24.58;9.65;;;;;;;6.01;87.28;102672.72;5090596;28;20039;-63
2021/11/09 07:03:47;;;;;;;20.98;9.57;;;;;;;6.03;87.48;102677.94;5090654;28;20094;-63
2021/11/09 07:06:12;;;;;;;23.90;9.70;;;;;;;6.07;87.00;102687.47;5090395;28;20107;-62
2021/11/09 07:08:37;;;;;;;26.33;11.07;;;;;;;6.08;86.94;102683.84;5092346;28;20012;-63
2021/11/09 07:11:03;;;;;;;21.97;10.23;;;;;;;6.08;87.56;102687.38;5094706;28;20274;-63
2021/11/09 07:13:30;;;;;;;25.80;11.25;;;;;;;6.10;87.65;102687.31;5094572;28;20021;-63
2021/11/09 07:15:56;;;;;;;30.97;12.60;;;;;;;6.13;87.20;102689.78;5076099;28;20028;-63
2021/11/09 07:18:21;;;;;;;24.58;11.25;;;;;;;6.15;87.53;102686.13;5094932;28;20028;-63
2021/11/09 07:20:47;;;;;;;30.35;11.18;;;;;;;6.21;87.14;102692.91;5094400;28;20443;-62
2021/11/09 07:23:12;;;;;;;28.20;12.37;;;;;;;6.23;87.24;102700.78;5094450;28;20564;-63
2021/11/09 07:25:37;;;;;;;25.53;11.27;;;;;;;6.25;87.22;102691.84;5094040;28;20083;-64
2021/11/09 07:28:03;;;;;;;24.77;10.57;;;;;;;6.27;87.23;102702.34;5114632;28;20028;-62
2021/11/09 07:30:40;;;;;;;24.73;11.35;;;;;;;6.30;87.12;102707.47;5114614;28;20028;-63
2021/11/09 07:33:06;;;;;;;27.35;11.65;;;;;;;6.34;87.35;102714.31;5114683;28;20031;-62
2021/11/09 07:35:31;;;;;;;28.27;10.70;;;;;;;6.37;87.18;102719.47;5096309;28;20031;-63
2021/11/09 07:37:56;;;;;;;22.23;11.65;;;;;;;6.39;87.24;102714.09;5114610;28;20348;-63
2021/11/09 07:40:23;;;;;;;24.23;12.93;;;;;;;6.41;87.07;102722.81;5114670;28;20020;-63
2021/11/09 07:42:49;;;;;;;25.17;11.40;;;;;;;6.37;87.27;102723.91;5114366;28;20142;-63
2021/11/09 07:45:19;;;;;;;21.33;11.30;;;;;;;6.37;87.51;102724.78;5114303;28;20067;-64
2021/11/09 07:47:46;;;;;;;17.40;9.90;;;;;;;6.40;87.89;102726.41;5114480;28;20334;-63
2021/11/09 07:50:11;;;;;;;;;;;;;;;6.40;87.37;102731.72;5114812;28;20521;-62
2021/11/09 07:52:37;;;;;;;26.40;10.90;;;;;;;6.41;87.82;102720.16;5114156;28;19983;-63
2021/11/09 07:55:06;;;;;;;21.85;10.70;;;;;;;6.44;87.74;102733.25;5114029;28;20032;-64
2021/11/09 07:57:42;;;;;;;21.57;10.73;;;;;;;6.45;87.97;102722.59;5096256;28;20047;-65
2021/11/09 08:03:18;;;;;;;27.77;11.27;;;;;;;6.59;87.90;102735.13;5114456;28;20367;-63
2021/11/09 08:08:19;;;;;;;24.20;11.65;;;;;;;6.65;88.38;102732.16;5113684;28;20374;-63
2021/11/09 08:10:45;;;;;;;26.00;11.13;;;;;;;6.70;87.80;102734.56;5096319;28;20036;-62
2021/11/09 08:13:10;;;;;;;;;;;;;;;6.69;87.74;102730.19;5114180;28;20458;-66
2021/11/09 08:15:37;;;;;;;21.90;10.07;;;;;;;6.75;87.68;102727.25;5113737;28;19915;-66
2021/11/09 08:18:03;;;;;;;27.43;10.90;;;;;;;6.76;87.65;102733.38;5113753;28;20016;-66
2021/11/09 08:20:29;;;;;;;19.38;10.25;;;;;;;6.83;87.28;102737.44;5112960;28;20057;-65
2021/11/09 08:22:54;;;;;;;27.90;10.35;;;;;;;6.90;87.13;102735.31;5113425;28;20043;-64
2021/11/09 08:25:20;;;;;;;25.87;10.90;;;;;;;6.89;86.64;102736.25;5113617;28;20038;-65
2021/11/09 08:27:45;;;;;;;23.27;10.70;;;;;;;6.94;86.80;102740.38;5113736;28;20054;-66
2021/11/09 08:30:11;;;;;;;21.65;10.98;;;;;;;6.97;86.75;102726.09;5113691;28;20625;-65
2021/11/09 08:32:37;;;;;;;24.35;10.70;;;;;;;6.95;86.63;102736.78;5113483;28;20023;-65
2021/11/09 08:35:03;;;;;;;20.25;10.60;;;;;;;7.00;86.69;102730.38;5107690;28;20035;-66
2021/11/09 08:37:29;;;;;;;21.07;9.33;;;;;;;7.12;86.56;102730.59;5092708;28;20532;-66
2021/11/09 08:39:55;;;;;;;22.00;10.05;;;;;;;7.23;86.23;102735.28;5074736;28;20024;-67
2021/11/09 08:42:34;;;;;;;21.03;10.17;;;;;;;7.26;86.04;102732.50;5093057;28;20031;-66
2021/11/09 08:47:31;;;;;;;26.47;11.37;;;;;;;7.38;85.92;102732.75;5093006;28;20039;-66
2021/11/09 08:49:57;;;;;;;16.03;9.07;;;;;;;7.41;85.62;102724.66;5092720;28;20028;-65
2021/11/09 08:52:24;;;;;;;;;;;;;;;7.39;85.40;102723.84;5093263;28;20032;-71
2021/11/09 08:55:13;;;;;;;25.45;10.55;;;;;;;7.40;85.19;102726.41;5092648;28;19920;-66
2021/11/09 09:05:51;;;;;;;20.87;9.90;;;;;;;7.74;84.22;102727.19;5107313;28;20081;-64
2021/11/09 09:08:16;;;;;;;21.05;9.82;;;;;;;7.76;84.10;102732.41;5094257;28;20023;-63
2021/11/09 09:10:42;;;;;;;22.90;9.60;;;;;;;7.79;83.71;102740.22;5112868;28;20163;-64
2021/11/09 09:13:08;;;;;;;24.83;10.40;;;;;;;7.89;83.73;102735.22;5112711;28;20284;-65
2021/11/09 09:15:36;;;;;;;21.35;10.23;;;;;;;7.90;83.70;102737.78;5112577;28;20541;-64
2021/11/09 09:18:03;;;;;;;25.57;11.07;;;;;;;7.98;83.47;102732.03;5112913;28;20057;-63
2021/11/09 09:20:39;;;;;;;;;;;;;;;7.96;83.29;102740.09;5113256;28;20024;-63
2021/11/09 09:23:10;;;;;;;24.67;10.60;;;;;;;7.92;83.59;102735.09;5112737;28;19951;-64
2021/11/09 09:52:35;;;;;;;25.00;10.50;;;;;;;8.72;80.53;102745.47;5092157;28;20109;-62
2021/11/09 09:55:34;;;;;;;26.60;11.23;;;;;;;8.80;81.00;102744.09;5091338;28;20471;-63
2021/11/09 09:57:48;;;;;;;22.67;10.20;;;;;;;8.84;80.74;102746.53;5090905;28;20035;-64
2021/11/09 10:00:14;;;;;;;23.77;10.55;;;;;;;8.96;80.53;102754.63;5091680;28;20016;-63
2021/11/09 10:02:50;;;;;;;21.83;9.10;;;;;;;9.07;80.19;102742.47;5091570;28;20032;-64
2021/11/09 10:05:16;;;;;;;19.73;9.97;;;;;;;9.02;80.39;102752.53;5091579;28;20051;-63
2021/11/09 10:07:47;;;;;;;22.90;10.65;;;;;;;9.08;80.00;102749.50;5091429;28;20056;-63
2021/11/09 10:10:16;;;;;;;25.27;9.65;;;;;;;9.13;79.89;102758.06;5091140;28;20094;-63
2021/11/09 10:12:56;;;;;;;26.85;10.38;;;;;;;9.02;80.07;102748.09;5091184;28;20103;-63
2021/11/09 10:15:26;;;;;;;21.25;10.15;;;;;;;8.95;80.43;102750.25;5091237;28;20035;-64
2021/11/09 10:17:53;;;;;;;28.27;10.70;;;;;;;8.95;80.06;102744.94;5073601;28;20099;-63
2021/11/09 10:20:44;;;;;;;24.88;9.98;;;;;;;8.92;80.63;102744.28;5091000;28;20500;-63
2021/11/09 10:23:16;;;;;;;23.85;8.90;;;;;;;8.97;80.79;102748.38;5028104;28;20528;-63
2021/11/09 10:25:43;;;;;;;26.00;10.80;;;;;;;8.95;81.10;102752.06;5027636;28;20092;-63
2021/11/09 10:28:13;;;;;;;25.83;10.02;;;;;;;8.90;81.66;102751.50;5028104;28;20511;-63
2021/11/09 10:30:43;;;;;;;28.08;10.40;;;;;;;9.02;81.70;102744.56;5028093;28;20543;-63
2021/11/09 10:33:15;;;;;;;24.95;10.55;;;;;;;9.14;80.85;102749.16;5027993;28;20030;-63
2021/11/09 10:35:43;;;;;;;27.33;10.70;;;;;;;9.09;81.33;102745.91;5028091;28;20037;-63
2021/11/09 10:38:09;;;;;;;23.80;10.02;;;;;;;9.15;81.30;102748.16;5028048;28;20037;-63
2021/11/09 10:40:50;;;;;;;;;;;;;;;9.20;81.48;102745.25;5028262;28;20033;-63
2021/11/09 10:43:20;;;;;;;22.70;10.05;;;;;;;9.17;81.44;102746.28;5027862;28;19924;-64
2021/11/09 10:45:46;;;;;;;25.23;9.82;;;;;;;9.25;81.18;102737.81;5028147;28;20044;-64
2021/11/09 10:48:15;;;;;;;21.73;9.77;;;;;;;9.20;81.67;102747.91;5027910;28;20034;-64
2021/11/09 10:50:45;;;;;;;24.38;9.48;;;;;;;9.19;81.71;102751.50;5028183;28;20396;-64
2021/11/09 10:53:30;;;;;;;23.00;9.93;;;;;;;9.07;82.69;102755.78;5027987;28;20111;-64
2021/11/09 11:06:26;;;;;;;23.83;9.85;;;;;;;9.19;82.78;102747.03;5090694;28;20036;-63
2021/11/09 11:08:53;;;;;;;24.85;9.68;;;;;;;9.14;82.88;102757.97;5090497;28;20035;-63
2021/11/09 11:11:28;;;;;;;27.27;10.25;;;;;;;9.03;83.88;102752.44;5090175;28;20020;-63
2021/11/09 11:14:07;;;;;;;26.27;11.25;;;;;;;9.06;83.75;102754.06;5090841;28;20020;-63
2021/11/09 11:16:40;;;;;;;25.38;10.43;;;;;;;9.05;83.30;102753.22;5090557;28;20095;-63
2021/11/09 11:19:07;;;;;;;29.35;11.25;;;;;;;8.98;83.73;102751.88;5090626;28;20028;-63
2021/11/09 11:21:32;;;;;;;24.52;10.45;;;;;;;9.03;83.73;102747.13;5090518;28;20494;-63
2021/11/09 11:23:58;;;;;;;32.45;13.20;;;;;;;8.91;84.05;102750.56;5090696;28;20024;-65
2021/11/09 11:26:23;;;;;;;26.05;11.43;;;;;;;8.89;84.29;102742.69;5090401;28;20494;-63
2021/11/09 11:28:52;;;;;;;28.65;10.90;;;;;;;8.89;84.55;102744.47;5090314;28;20482;-64
2021/11/09 11:31:19;;;;;;;20.55;10.07;;;;;;;8.95;84.04;102744.09;5090395;28;20086;-65
2021/11/09 11:33:45;;;;;;;26.08;10.95;;;;;;;8.86;84.56;102742.00;5090352;28;20360;-62
2021/11/09 11:36:11;;;;;;;21.38;10.20;;;;;;;8.95;84.23;102750.25;5090224;28;20078;-63
2021/11/09 11:38:45;;;;;;;22.85;9.77;;;;;;;8.89;84.65;102744.47;5090351;28;20032;-63
2021/11/09 11:41:11;;;;;;;20.83;10.35;;;;;;;8.83;85.18;102739.53;5090452;28;20024;-63
2021/11/09 11:43:47;;;;;;;19.98;9.13;;;;;;;8.89;84.97;102740.03;5090291;28;20025;-63
2021/11/09 11:46:31;;;;;;;18.52;9.52;;;;;;;8.88;85.15;102737.47;5090308;28;20032;-63
2021/11/09 11:49:07;;;;;;;21.75;10.20;;;;;;;8.81;86.09;102736.94;5071874;28;20028;-64
2021/11/09 11:51:37;;;;;;;22.50;10.20;;;;;;;8.83;86.01;102739.53;5090430;28;20028;-63
2021/11/09 11:54:03;;;;;;;21.38;9.55;;;;;;;8.83;85.73;102731.56;5090125;28;20472;-63
2021/11/09 11:56:44;;;;;;;21.13;9.77;;;;;;;8.81;86.30;102726.31;5093334;28;20047;-63
2021/11/09 11:59:22;;;;;;;27.70;11.23;;;;;;;8.85;86.44;102727.00;5093702;28;20036;-63
2021/11/09 12:01:48;;;;;;;20.70;9.90;;;;;;;8.86;86.39;102728.72;5094195;28;20020;-63
2021/11/09 12:04:35;;;;;;;20.75;10.68;;;;;;;8.85;86.49;102716.34;5093893;28;20020;-63
2021/11/09 12:07:05;;;;;;;20.13;9.52;;;;;;;8.79;86.45;102712.28;5093787;28;20032;-63
2021/11/09 12:09:40;;;;;;;26.42;11.82;;;;;;;8.69;87.54;102716.44;5093510;28;20482;-63
2021/11/09 12:12:17;;;;;;;21.80;10.98;;;;;;;8.73;87.46;102712.66;5093960;28;20063;-63
2021/11/09 12:14:46;;;;;;;21.98;11.43;;;;;;;8.70;87.00;102716.34;5093627;28;20094;-63
2021/11/09 12:17:13;;;;;;;21.38;10.57;;;;;;;8.73;87.28;102709.97;5093701;28;20476;-63
2021/11/09 12:19:44;;;;;;;22.17;10.68;;;;;;;8.65;87.11;102707.78;5093588;28;20028;-63
2021/11/09 12:22:19;;;;;;;19.23;10.45;;;;;;;8.62;88.07;102703.50;5093558;28;20514;-63
2021/11/09 12:24:58;;;;;;;22.35;10.07;;;;;;;8.67;87.92;102697.06;5093540;28;20047;-65
2021/11/09 12:27:30;;;;;;;23.27;10.25;;;;;;;8.74;87.60;102690.44;5093600;28;20036;-63
2021/11/09 12:29:57;;;;;;;18.20;10.85;;;;;;;8.79;87.71;102691.00;5093036;28;20042;-63
2021/11/09 12:32:36;;;;;;;19.30;10.30;;;;;;;8.85;88.13;102689.75;5093454;28;20031;-63
2021/11/09 12:35:10;;;;;;;16.38;9.93;;;;;;;8.88;87.99;102695.75;5093156;28;20554;-64
2021/11/09 12:37:37;;;;;;;16.75;10.27;;;;;;;8.85;87.60;102689.75;5093159;28;20090;-63
2021/11/09 12:40:21;;;;;;;;;;;;;;;8.85;87.58;102697.75;5093729;28;20032;-63
2021/11/09 12:43:10;;;;;;;18.95;9.90;;;;;;;8.86;87.35;102694.16;5093041;28;20340;-63
2021/11/09 12:45:38;;;;;;;18.75;10.07;;;;;;;8.71;87.94;102687.97;5092741;28;20044;-63
2021/11/09 12:48:06;;;;;;;15.85;10.32;;;;;;;8.74;88.06;102679.81;5093100;28;20056;-63
2021/11/09 12:50:33;;;;;;;17.88;9.63;;;;;;;8.84;87.95;102680.06;5093036;28;20016;-64
2021/11/09 12:53:09;;;;;;;16.02;9.45;;;;;;;8.84;87.52;102678.28;5092993;28;20024;-64
2021/11/09 12:55:38;;;;;;;18.23;10.07;;;;;;;8.86;87.95;102680.84;5093044;28;20028;-64
2021/11/09 12:58:21;;;;;;;19.77;9.93;;;;;;;8.89;87.86;102681.53;5092650;28;20024;-63
2021/11/09 13:01:02;;;;;;;13.95;9.32;;;;;;;8.89;87.88;102684.19;5092491;28;20047;-63
2021/11/09 13:03:34;;;;;;;16.23;8.52;;;;;;;8.89;87.64;102684.19;5092698;28;20035;-62
2021/11/09 13:08:58;;;;;;;18.88;9.93;;;;;;;8.84;87.68;102683.59;5010193;28;20037;-63
2021/11/09 13:11:39;;;;;;;15.90;9.93;;;;;;;8.82;87.76;102685.50;5010057;28;20026;-63
2021/11/09 13:14:09;;;;;;;23.33;11.10;;;;;;;8.78;87.70;102676.00;5010036;28;20091;-63
2021/11/09 13:16:41;;;;;;;23.08;11.10;;;;;;;8.84;87.58;102686.25;5009591;28;20543;-63
2021/11/09 13:19:07;;;;;;;23.63;11.05;;;;;;;8.86;87.61;102683.50;5009786;28;20038;-64
2021/11/09 13:21:34;;;;;;;23.50;11.52;;;;;;;8.92;87.65;102683.13;5009929;28;20165;-63
2021/11/09 13:24:00;;;;;;;26.10;10.88;;;;;;;9.03;87.25;102682.47;5009787;28;20340;-62
2021/11/09 13:26:26;;;;;;;23.90;11.77;;;;;;;9.01;86.67;102689.66;5060475;22;20068;-63
2021/11/09 13:28:52;;;;;;;20.35;10.75;;;;;;;8.99;86.83;102692.41;5072068;28;20279;-62
2021/11/09 13:31:17;;;;;;;22.05;10.57;;;;;;;8.99;86.94;102687.09;5071858;28;20021;-63
2021/11/09 13:33:47;;;;;;;21.77;10.83;;;;;;;9.05;87.06;102680.53;5071857;28;20013;-63
2021/11/09 13:36:21;;;;;;;25.88;11.50;;;;;;;8.99;86.84;102686.25;5071753;28;20518;-63
2021/11/09 13:38:47;;;;;;;28.90;12.15;;;;;;;8.96;87.01;102679.34;5071806;28;20085;-62
2021/11/09 13:41:18;;;;;;;23.27;11.17;;;;;;;8.94;87.03;102679.44;5071638;28;20036;-62
2021/11/09 13:44:02;;;;;;;27.15;10.80;;;;;;;9.00;87.06;102678.19;5071675;28;20028;-62
2021/11/09 13:46:31;;;;;;;21.92;11.10;;;;;;;9.08;87.03;102675.03;5071218;28;20024;-63
2021/11/09 13:49:00;;;;;;;20.20;10.35;;;;;;;9.11;86.25;102674.84;5071478;28;20032;-63
2021/11/09 13:51:29;;;;;;;22.73;10.63;;;;;;;9.11;86.35;102673.06;5071576;28;20090;-63
2021/11/09 13:54:04;;;;;;;22.67;10.50;;;;;;;9.13;85.43;102673.78;5071516;28;20391;-63
2021/11/09 13:56:30;;;;;;;27.80;10.38;;;;;;;9.18;85.48;102665.53;5071197;28;20123;-62
2021/11/09 13:59:04;;;;;;;25.13;9.60;;;;;;;9.18;84.77;102670.84;5071364;28;20098;-63
2021/11/09 14:01:30;;;;;;;31.00;11.10;;;;;;;9.18;84.92;102680.63;5071169;28;20035;-62